Airport ID:KSMD
Update Time (UTC):21/01/2019 10:06
Wind Speed (Knots):3
Wind Direction (Magnetic):310
Temperature (°C):-21.5
Dew Point (°C):-25
Humidity (%):73.8
Altimeter (inHg):30.47
Density Altitude (Feet):
Visibility (Miles):10
Clouds (Hundreds of feet):CLR
Present Weather:
METAR:METAR KSMD 211005Z AUTO 00000KT 10SM CLR M21/M25 A3047 RMK A01

The data displayed is for advisory purposes only and is not to be used for flight planning or operations.

This page is not automatically refreshed. Reload the page to see current data.